createdAt,value
2023-11-24T00:01:52.896Z,2.40
2023-11-24T00:04:19.792Z,2.50
2023-11-24T00:06:47.385Z,2.20
2023-11-24T00:09:14.809Z,2.60
2023-11-24T00:11:43.748Z,2.60
2023-11-24T00:14:10.884Z,2.30
2023-11-24T00:16:40.026Z,2.40
2023-11-24T00:19:07.562Z,2.40
2023-11-24T00:21:35.022Z,2.30
2023-11-24T00:24:05.372Z,2.30
2023-11-24T00:26:32.701Z,2.30
2023-11-24T00:28:59.579Z,2.20
2023-11-24T00:31:26.363Z,2.40
2023-11-24T00:33:57.366Z,2.50
2023-11-24T00:36:24.540Z,2.50
2023-11-24T00:38:51.714Z,2.60
2023-11-24T00:41:19.025Z,2.60
2023-11-24T00:43:49.437Z,2.50
2023-11-24T00:46:18.536Z,2.30
2023-11-24T00:48:45.600Z,2.40
2023-11-24T00:51:12.495Z,2.20
2023-11-24T00:53:39.250Z,2.20
2023-11-24T00:56:06.231Z,2.20
2023-11-24T00:58:33.046Z,2.40
2023-11-24T01:01:03.280Z,2.40
2023-11-24T01:03:30.418Z,2.40
2023-11-24T01:05:57.231Z,2.50
2023-11-24T01:08:23.973Z,2.50
2023-11-24T01:10:50.741Z,2.30
2023-11-24T01:13:17.564Z,2.50
2023-11-24T01:15:44.414Z,2.20
2023-11-24T01:18:11.257Z,2.10
2023-11-24T01:20:38.132Z,2.00
2023-11-24T01:23:07.750Z,2.00
2023-11-24T01:25:34.588Z,1.90
2023-11-24T01:28:02.733Z,1.90
2023-11-24T01:30:29.597Z,1.80
2023-11-24T01:32:56.430Z,1.80
2023-11-24T01:35:23.342Z,1.80
2023-11-24T01:37:50.063Z,1.90
2023-11-24T01:40:19.405Z,1.90
2023-11-24T01:42:46.271Z,2.00
2023-11-24T01:45:13.157Z,1.90
2023-11-24T01:47:40.220Z,1.80
2023-11-24T01:50:08.905Z,1.60
2023-11-24T01:52:36.053Z,1.70
2023-11-24T01:55:05.660Z,1.60
2023-11-24T01:57:32.849Z,1.70
2023-11-24T02:00:00.183Z,2.00
2023-11-24T02:02:28.587Z,1.90
2023-11-24T02:04:55.458Z,2.00
2023-11-24T02:07:24.335Z,1.80
2023-11-24T02:09:51.313Z,1.80
2023-11-24T02:12:18.370Z,2.00
2023-11-24T02:14:45.207Z,2.00
2023-11-24T02:17:11.926Z,2.00
2023-11-24T02:19:38.796Z,2.00
2023-11-24T02:22:05.746Z,2.10
2023-11-24T02:24:32.598Z,2.00
2023-11-24T02:27:00.454Z,2.20
2023-11-24T02:29:27.306Z,2.10
2023-11-24T02:31:55.177Z,2.30
2023-11-24T02:34:22.224Z,2.10
2023-11-24T02:36:49.087Z,2.00
2023-11-24T02:39:15.953Z,1.90
2023-11-24T02:41:43.378Z,1.80
2023-11-24T02:44:10.371Z,1.70
2023-11-24T02:46:37.188Z,1.60
2023-11-24T02:49:04.081Z,1.40
2023-11-24T02:51:30.921Z,1.50
2023-11-24T02:53:57.866Z,1.70
2023-11-24T02:56:24.855Z,1.60
2023-11-24T02:58:51.598Z,1.90
2023-11-24T03:01:18.454Z,1.90
2023-11-24T03:03:45.352Z,1.90
2023-11-24T03:06:14.248Z,2.00
2023-11-24T03:08:41.243Z,2.10
2023-11-24T03:11:08.377Z,2.20
2023-11-24T03:13:35.603Z,2.00
2023-11-24T03:16:03.225Z,2.20
2023-11-24T03:18:30.076Z,2.10
2023-11-24T03:20:57.349Z,2.30
2023-11-24T03:23:24.802Z,2.20
2023-11-24T03:25:52.249Z,2.10
2023-11-24T03:28:22.126Z,2.10
2023-11-24T03:30:48.983Z,2.20
2023-11-24T03:33:16.588Z,2.20
2023-11-24T03:35:43.490Z,2.40
2023-11-24T03:38:10.305Z,2.30
2023-11-24T03:40:37.111Z,2.10
2023-11-24T03:43:04.191Z,2.10
2023-11-24T03:45:31.381Z,2.30
2023-11-24T03:47:58.405Z,2.30
2023-11-24T03:50:25.157Z,2.20
2023-11-24T03:52:52.101Z,2.40
2023-11-24T03:55:18.942Z,2.40
2023-11-24T03:57:47.369Z,2.50
2023-11-24T04:00:14.921Z,2.40
2023-11-24T04:02:43.004Z,2.40
2023-11-24T04:05:12.148Z,2.40
2023-11-24T04:07:39.905Z,2.30
2023-11-24T04:10:08.397Z,2.30
2023-11-24T04:12:35.416Z,2.50
2023-11-24T04:15:02.399Z,2.40
2023-11-24T04:17:29.249Z,2.40
2023-11-24T04:19:56.045Z,2.40
2023-11-24T04:22:22.850Z,2.30
2023-11-24T04:24:49.707Z,2.30
2023-11-24T04:27:16.515Z,2.20
2023-11-24T04:29:43.404Z,2.40
2023-11-24T04:32:10.855Z,2.30
2023-11-24T04:34:37.830Z,2.60
2023-11-24T04:37:04.886Z,2.40
2023-11-24T04:39:31.881Z,2.60
2023-11-24T04:41:58.674Z,2.20
2023-11-24T04:44:25.562Z,2.40
2023-11-24T04:46:52.551Z,2.30
2023-11-24T04:49:20.000Z,2.40
2023-11-24T04:51:46.947Z,2.50
2023-11-24T04:54:13.863Z,2.50
2023-11-24T04:56:40.739Z,2.40
2023-11-24T04:59:07.675Z,2.30
2023-11-24T05:01:34.700Z,2.30
2023-11-24T05:04:01.781Z,2.20
2023-11-24T05:06:28.681Z,2.30
2023-11-24T05:08:55.538Z,2.50
2023-11-24T05:11:22.701Z,2.40
2023-11-24T05:13:50.501Z,2.50
2023-11-24T05:16:17.971Z,2.50
2023-11-24T05:18:45.135Z,2.50
2023-11-24T05:21:12.000Z,2.70
2023-11-24T05:23:38.970Z,2.60
2023-11-24T05:26:06.013Z,2.50
2023-11-24T05:28:34.355Z,2.40
2023-11-24T05:31:01.368Z,2.40
2023-11-24T05:33:28.297Z,2.30
2023-11-24T05:35:57.659Z,2.40
2023-11-24T05:38:24.710Z,2.50
2023-11-24T05:40:51.531Z,2.50
2023-11-24T05:43:18.382Z,2.50
2023-11-24T05:45:45.664Z,2.40
2023-11-24T05:48:12.496Z,2.50
2023-11-24T05:50:40.021Z,2.50
2023-11-24T05:53:06.886Z,2.60
2023-11-24T05:55:33.638Z,2.30
2023-11-24T05:58:00.493Z,2.40
2023-11-24T06:00:27.397Z,2.40
2023-11-24T06:02:54.355Z,2.60
2023-11-24T06:05:21.375Z,2.60
2023-11-24T06:07:51.246Z,2.40
2023-11-24T06:10:20.182Z,2.50
2023-11-24T06:12:46.996Z,2.40
2023-11-24T06:15:15.162Z,2.40
2023-11-24T06:17:42.157Z,2.40
2023-11-24T06:20:10.017Z,2.20
2023-11-24T06:22:36.878Z,2.30
2023-11-24T06:25:03.792Z,2.30
2023-11-24T06:27:30.571Z,2.30
2023-11-24T06:29:57.460Z,2.20
2023-11-24T06:32:24.444Z,2.30
2023-11-24T06:34:51.343Z,2.40
2023-11-24T06:37:19.108Z,2.20
2023-11-24T06:39:46.457Z,2.40
2023-11-24T06:42:13.570Z,2.50
2023-11-24T06:44:40.333Z,2.50
2023-11-24T06:47:07.356Z,2.50
2023-11-24T06:49:34.353Z,2.60
2023-11-24T06:52:03.005Z,2.40
2023-11-24T06:54:33.904Z,2.60
2023-11-24T06:57:00.693Z,2.60
2023-11-24T06:59:27.688Z,2.50
2023-11-24T07:01:54.663Z,2.50
2023-11-24T07:04:21.812Z,2.40
2023-11-24T07:06:48.935Z,2.60
2023-11-24T07:09:15.946Z,2.60
2023-11-24T07:11:48.700Z,2.60
2023-11-24T07:14:16.280Z,2.60
2023-11-24T07:16:43.357Z,2.50
2023-11-24T07:19:11.686Z,2.40
2023-11-24T07:21:40.105Z,2.50
2023-11-24T07:24:07.144Z,2.30
2023-11-24T07:26:33.993Z,2.20
2023-11-24T07:29:00.830Z,2.60
2023-11-24T07:31:29.544Z,2.50
2023-11-24T07:33:56.433Z,2.40
2023-11-24T07:36:23.234Z,2.40
2023-11-24T07:38:51.391Z,2.40
2023-11-24T07:41:18.257Z,2.60
2023-11-24T07:43:45.444Z,2.70
2023-11-24T07:46:12.701Z,2.60
2023-11-24T07:48:39.772Z,2.50
2023-11-24T07:51:07.182Z,2.60
2023-11-24T07:53:34.624Z,2.60
2023-11-24T07:56:01.551Z,2.80
2023-11-24T07:58:31.369Z,2.70
2023-11-24T08:00:58.289Z,3.00
2023-11-24T08:03:25.785Z,2.90
2023-11-24T08:05:53.739Z,2.80
2023-11-24T08:08:21.610Z,2.90
2023-11-24T08:10:48.533Z,2.90
2023-11-24T08:13:15.691Z,2.90
2023-11-24T08:15:42.529Z,3.10
2023-11-24T08:18:09.509Z,2.90
2023-11-24T08:20:36.330Z,2.90
2023-11-24T08:23:03.253Z,2.90
2023-11-24T08:25:30.099Z,3.10
2023-11-24T08:27:58.031Z,2.90
2023-11-24T08:30:24.937Z,3.10
2023-11-24T08:32:51.895Z,3.00
2023-11-24T08:35:18.787Z,3.10
2023-11-24T08:37:45.739Z,3.00
2023-11-24T08:40:16.325Z,3.00
2023-11-24T08:42:44.439Z,3.00
2023-11-24T08:45:14.972Z,3.00
2023-11-24T08:47:42.748Z,3.20
2023-11-24T08:50:14.485Z,3.30
2023-11-24T08:52:41.575Z,3.10
2023-11-24T08:55:09.512Z,3.30
2023-11-24T08:57:36.454Z,3.20
2023-11-24T09:00:04.016Z,3.30
2023-11-24T09:02:32.203Z,3.10
2023-11-24T09:04:59.472Z,3.20
2023-11-24T09:07:28.148Z,3.40
2023-11-24T09:09:55.125Z,3.30
2023-11-24T09:12:22.000Z,3.30
2023-11-24T09:14:48.859Z,3.30
2023-11-24T09:17:15.951Z,3.70
2023-11-24T09:19:42.889Z,3.90
2023-11-24T09:22:11.828Z,3.70
2023-11-24T09:24:38.700Z,3.70
2023-11-24T09:27:05.960Z,3.50
2023-11-24T09:29:33.169Z,3.50
2023-11-24T09:32:00.148Z,3.40
2023-11-24T09:34:27.872Z,3.40
2023-11-24T09:36:55.301Z,3.50
2023-11-24T09:39:26.937Z,3.40
2023-11-24T09:41:54.190Z,3.40
2023-11-24T09:44:21.102Z,3.30
2023-11-24T09:46:52.145Z,3.40
2023-11-24T09:49:21.496Z,3.20
2023-11-24T09:51:48.416Z,3.20
2023-11-24T09:54:15.281Z,3.10
2023-11-24T09:56:44.459Z,3.30
2023-11-24T09:59:11.734Z,3.20
2023-11-24T10:01:38.983Z,3.30
2023-11-24T10:04:10.998Z,3.30
2023-11-24T10:06:43.278Z,3.40
2023-11-24T10:09:15.974Z,3.40
2023-11-24T10:11:42.775Z,3.30
2023-11-24T10:14:12.974Z,3.60
2023-11-24T10:16:42.957Z,3.60
2023-11-24T10:19:19.387Z,3.40
2023-11-24T10:21:49.385Z,3.20
2023-11-24T10:24:16.285Z,3.30
2023-11-24T10:26:45.464Z,3.10
2023-11-24T10:29:12.703Z,3.00
2023-11-24T10:31:39.761Z,2.80
2023-11-24T10:34:07.433Z,2.70
2023-11-24T10:36:36.122Z,2.70
2023-11-24T10:39:07.503Z,2.90
2023-11-24T10:41:39.858Z,2.90
2023-11-24T10:44:08.502Z,2.80
2023-11-24T10:46:37.670Z,2.70
2023-11-24T10:49:23.181Z,2.70
2023-11-24T10:51:56.256Z,2.90
2023-11-24T10:54:32.472Z,2.80
2023-11-24T10:57:00.974Z,2.90
2023-11-24T10:59:29.473Z,3.20
2023-11-24T11:01:59.018Z,3.30
2023-11-24T11:04:28.385Z,3.50
2023-11-24T11:07:06.738Z,3.80
2023-11-24T11:09:44.092Z,3.90
2023-11-24T11:12:14.983Z,3.90
2023-11-24T11:14:42.056Z,3.60
2023-11-24T11:17:20.092Z,3.60
2023-11-24T11:20:23.901Z,3.40
2023-11-24T11:22:59.350Z,3.20
2023-11-24T11:25:34.108Z,3.00
2023-11-24T11:28:19.643Z,3.00
2023-11-24T11:30:58.594Z,2.90
2023-11-24T11:33:25.898Z,3.20
2023-11-24T11:35:59.315Z,3.00
2023-11-24T11:38:36.861Z,2.80
2023-11-24T11:41:06.538Z,2.90
2023-11-24T11:43:33.489Z,2.80
2023-11-24T11:46:01.241Z,2.90
2023-11-24T11:48:36.825Z,2.80
2023-11-24T11:51:03.774Z,2.70
2023-11-24T11:53:30.923Z,2.70
2023-11-24T11:55:57.999Z,2.80
2023-11-24T11:58:26.368Z,2.70
2023-11-24T12:00:54.769Z,2.70
2023-11-24T12:03:22.303Z,2.70
2023-11-24T12:05:49.492Z,2.80
2023-11-24T12:08:17.193Z,2.80
2023-11-24T12:10:44.039Z,2.70
2023-11-24T12:13:10.862Z,2.90
2023-11-24T12:15:38.325Z,3.10
2023-11-24T12:18:08.140Z,3.10
2023-11-24T12:20:38.217Z,3.00
2023-11-24T12:23:05.673Z,3.00
2023-11-24T12:25:32.829Z,3.00
2023-11-24T12:28:06.089Z,3.00
2023-11-24T12:30:41.601Z,3.10
2023-11-24T12:33:20.207Z,2.70
2023-11-24T12:35:48.346Z,2.90
2023-11-24T12:38:16.867Z,2.90
2023-11-24T12:40:44.384Z,2.60
2023-11-24T12:43:18.593Z,2.70
2023-11-24T12:45:48.321Z,2.60
2023-11-24T12:48:20.647Z,2.40
2023-11-24T12:50:48.816Z,2.50
2023-11-24T12:53:16.120Z,2.40
2023-11-24T12:55:43.341Z,2.50
2023-11-24T12:58:10.658Z,2.10
2023-11-24T13:00:38.169Z,2.30
2023-11-24T13:03:06.681Z,2.40
2023-11-24T13:05:37.297Z,2.10
2023-11-24T13:08:04.222Z,2.20
2023-11-24T13:10:32.756Z,2.30
2023-11-24T13:13:00.935Z,2.20
2023-11-24T13:15:29.293Z,2.30
2023-11-24T13:17:57.165Z,2.40
2023-11-24T13:20:29.987Z,2.40
2023-11-24T13:22:57.531Z,2.40
2023-11-24T13:25:28.124Z,2.50
2023-11-24T13:27:55.412Z,2.40
2023-11-24T13:31:44.459Z,2.40
2023-11-24T13:34:13.707Z,2.50
2023-11-24T13:36:42.390Z,2.30
2023-11-24T13:39:14.007Z,2.20
2023-11-24T13:41:43.420Z,2.20
2023-11-24T13:44:12.674Z,2.40
2023-11-24T13:46:40.325Z,2.30
2023-11-24T13:49:10.128Z,2.40
2023-11-24T13:51:37.375Z,2.40
2023-11-24T13:54:05.270Z,2.40
2023-11-24T13:56:32.766Z,2.40
2023-11-24T13:58:59.988Z,2.40
2023-11-24T14:01:27.281Z,2.40
2023-11-24T14:03:54.454Z,2.40
2023-11-24T14:06:23.447Z,2.30
2023-11-24T14:08:50.884Z,2.40
2023-11-24T14:11:17.847Z,2.40
2023-11-24T14:13:46.268Z,2.50
2023-11-24T14:16:13.675Z,2.70
2023-11-24T14:18:42.060Z,2.40
2023-11-24T14:21:09.157Z,2.40
2023-11-24T14:23:36.089Z,2.40
2023-11-24T14:26:03.814Z,2.10
2023-11-24T14:28:30.899Z,2.10
2023-11-24T14:30:57.908Z,2.10
2023-11-24T14:33:26.200Z,2.20
2023-11-24T14:35:53.107Z,2.10
2023-11-24T14:38:20.024Z,2.20
2023-11-24T14:40:47.334Z,2.30
2023-11-24T14:43:16.148Z,2.50
2023-11-24T14:45:44.678Z,2.30
2023-11-24T14:48:11.745Z,2.20
2023-11-24T14:50:38.739Z,2.30
2023-11-24T14:53:06.289Z,2.40
2023-11-24T14:55:36.139Z,2.00
2023-11-24T14:58:04.826Z,2.20
2023-11-24T15:00:34.907Z,2.10
2023-11-24T15:03:05.976Z,2.20
2023-11-24T15:05:34.685Z,2.00
2023-11-24T15:08:08.669Z,2.10
2023-11-24T15:10:36.197Z,2.10
2023-11-24T15:13:10.528Z,2.10
2023-11-24T15:15:41.337Z,1.90
2023-11-24T15:18:10.213Z,1.90
2023-11-24T15:20:45.900Z,2.00
2023-11-24T15:23:14.354Z,1.80
2023-11-24T15:26:11.135Z,1.90
2023-11-24T15:28:39.768Z,1.80
2023-11-24T15:31:07.203Z,2.00
2023-11-24T15:33:34.611Z,2.10
2023-11-24T15:36:03.690Z,2.00
2023-11-24T15:38:31.009Z,2.10
2023-11-24T15:40:57.996Z,2.10
2023-11-24T15:43:25.388Z,2.10
2023-11-24T15:45:59.025Z,2.00
2023-11-24T15:48:27.483Z,1.90
2023-11-24T15:50:54.580Z,2.00
2023-11-24T15:53:23.225Z,1.90
2023-11-24T15:56:14.387Z,2.20
2023-11-24T15:58:44.589Z,2.20
2023-11-24T16:01:13.784Z,2.30
2023-11-24T16:03:40.899Z,2.20
2023-11-24T16:06:15.656Z,2.30
2023-11-24T16:08:46.214Z,2.40
2023-11-24T16:11:13.697Z,2.30
2023-11-24T16:13:45.917Z,2.30
2023-11-24T16:16:13.680Z,2.30
2023-11-24T16:18:43.352Z,2.20
2023-11-24T16:21:10.438Z,2.20
2023-11-24T16:23:37.323Z,2.20
2023-11-24T16:26:04.259Z,2.20
2023-11-24T16:28:31.252Z,2.20
2023-11-24T16:30:58.219Z,2.30
2023-11-24T16:33:25.390Z,2.20
2023-11-24T16:35:52.389Z,2.30
2023-11-24T16:38:19.417Z,2.10
2023-11-24T16:40:46.489Z,2.30
2023-11-24T16:43:13.442Z,2.30
2023-11-24T16:45:40.339Z,2.00
2023-11-24T16:48:07.214Z,2.00
2023-11-24T16:50:35.326Z,1.90
2023-11-24T16:53:02.272Z,1.70
2023-11-24T16:55:30.644Z,2.00
2023-11-24T16:57:57.587Z,2.10
2023-11-24T17:00:24.663Z,1.90
2023-11-24T17:02:52.593Z,2.10
2023-11-24T17:05:19.823Z,2.10
2023-11-24T17:07:47.321Z,2.10
2023-11-24T17:10:15.607Z,2.00
2023-11-24T17:12:43.042Z,2.10
2023-11-24T17:15:11.484Z,2.10
2023-11-24T17:17:38.971Z,2.00
2023-11-24T17:20:09.295Z,2.10
2023-11-24T17:22:36.595Z,2.30
2023-11-24T17:25:04.006Z,2.20
2023-11-24T17:27:31.905Z,2.30
2023-11-24T17:29:59.568Z,2.20
2023-11-24T17:32:26.563Z,2.30
2023-11-24T17:34:53.589Z,2.10
2023-11-24T17:37:20.907Z,2.40
2023-11-24T17:39:47.869Z,2.30
2023-11-24T17:42:14.800Z,2.00
2023-11-24T17:44:41.726Z,2.20
2023-11-24T17:47:08.925Z,2.00
2023-11-24T17:49:35.912Z,1.90
2023-11-24T17:52:03.309Z,2.00
2023-11-24T17:54:30.303Z,2.00
2023-11-24T17:56:58.041Z,1.90
2023-11-24T17:59:24.961Z,1.70
2023-11-24T18:01:51.947Z,1.90
2023-11-24T18:04:19.076Z,1.80
2023-11-24T18:06:46.015Z,2.00
2023-11-24T18:09:13.211Z,1.90
2023-11-24T18:11:40.207Z,2.00
2023-11-24T18:14:07.184Z,2.00
2023-11-24T18:16:34.453Z,2.10
2023-11-24T18:19:01.556Z,1.90
2023-11-24T18:21:28.669Z,2.10
2023-11-24T18:23:55.605Z,1.90
2023-11-24T18:26:22.491Z,2.00
2023-11-24T18:28:50.559Z,1.90
2023-11-24T18:31:17.751Z,1.80
2023-11-24T18:33:45.413Z,1.90
2023-11-24T18:36:12.469Z,1.70
2023-11-24T18:38:40.692Z,1.60
2023-11-24T18:41:07.748Z,1.60
2023-11-24T18:43:39.808Z,1.70
2023-11-24T18:46:08.165Z,1.50
2023-11-24T18:48:35.426Z,1.50
2023-11-24T18:51:02.418Z,1.70
2023-11-24T18:53:29.181Z,1.40
2023-11-24T18:55:55.952Z,1.70
2023-11-24T18:58:23.631Z,1.40
2023-11-24T19:00:50.522Z,1.30
2023-11-24T19:03:18.120Z,1.30
2023-11-24T19:05:44.998Z,1.20
2023-11-24T19:08:11.788Z,1.10
2023-11-24T19:10:39.121Z,1.20
2023-11-24T19:13:06.014Z,1.10
2023-11-24T19:15:32.854Z,1.10
2023-11-24T19:17:59.723Z,1.10
2023-11-24T19:20:26.535Z,1.20
2023-11-24T19:22:53.742Z,1.20
2023-11-24T19:25:20.678Z,1.20
2023-11-24T19:27:47.529Z,1.10
2023-11-24T19:30:14.388Z,1.00
2023-11-24T19:32:41.266Z,1.00
2023-11-24T19:35:08.476Z,1.10
2023-11-24T19:37:35.303Z,1.10
2023-11-24T19:40:02.223Z,1.10
2023-11-24T19:42:29.001Z,1.20
2023-11-24T19:44:55.757Z,1.00
2023-11-24T19:47:22.514Z,1.20
2023-11-24T19:49:50.949Z,1.20
2023-11-24T19:52:17.762Z,1.50
2023-11-24T19:54:44.584Z,1.20
2023-11-24T19:57:11.329Z,1.10
2023-11-24T19:59:38.072Z,1.10
2023-11-24T20:02:06.227Z,1.10
2023-11-24T20:04:33.894Z,1.20
2023-11-24T20:07:01.031Z,1.10
2023-11-24T20:09:27.920Z,1.10
2023-11-24T20:11:54.812Z,1.30
2023-11-24T20:14:22.330Z,1.10
2023-11-24T20:16:51.303Z,1.20
2023-11-24T20:19:18.498Z,1.30
2023-11-24T20:21:45.270Z,1.20
2023-11-24T20:24:12.065Z,1.10
2023-11-24T20:26:40.801Z,1.10
2023-11-24T20:29:08.872Z,1.30
2023-11-24T20:31:36.084Z,1.00
2023-11-24T20:34:03.079Z,1.10
2023-11-24T20:36:29.909Z,1.20
2023-11-24T20:38:58.483Z,1.20
2023-11-24T20:41:25.417Z,1.30
2023-11-24T20:43:52.684Z,1.30
2023-11-24T20:46:19.510Z,1.10
2023-11-24T20:48:46.946Z,1.10
2023-11-24T20:51:14.229Z,1.20
2023-11-24T20:53:41.252Z,1.00
2023-11-24T20:56:09.306Z,1.00
2023-11-24T20:58:36.339Z,0.90
2023-11-24T21:01:03.348Z,0.90
2023-11-24T21:03:30.512Z,0.90
2023-11-24T21:05:57.528Z,0.80
2023-11-24T21:08:24.354Z,0.80
2023-11-24T21:10:51.411Z,0.80
2023-11-24T21:13:20.239Z,1.00
2023-11-24T21:15:47.218Z,0.70
2023-11-24T21:18:14.328Z,0.80
2023-11-24T21:20:41.978Z,0.90
2023-11-24T21:23:08.916Z,0.90
2023-11-24T21:25:37.386Z,0.80
2023-11-24T21:28:04.693Z,0.90
2023-11-24T21:30:31.527Z,0.80
2023-11-24T21:32:58.466Z,0.80
2023-11-24T21:35:25.560Z,1.00
2023-11-24T21:37:53.314Z,0.90
2023-11-24T21:40:20.198Z,0.80
2023-11-24T21:42:47.080Z,1.00
2023-11-24T21:45:14.083Z,0.90
2023-11-24T21:47:44.316Z,0.80
2023-11-24T21:50:14.587Z,0.70
2023-11-24T21:52:42.100Z,0.90
2023-11-24T21:55:10.287Z,1.00
2023-11-24T22:00:08.632Z,1.00
2023-11-24T22:02:40.529Z,0.80
2023-11-24T22:05:10.516Z,0.70
2023-11-24T22:07:38.403Z,0.70
2023-11-24T22:10:09.280Z,0.70
2023-11-24T22:12:37.590Z,0.80
2023-11-24T22:15:05.606Z,0.70
2023-11-24T22:17:34.025Z,0.80
2023-11-24T22:20:02.757Z,0.70
2023-11-24T22:22:33.054Z,0.70
2023-11-24T22:25:00.003Z,0.70
2023-11-24T22:27:26.843Z,0.80
2023-11-24T22:30:01.464Z,0.80
2023-11-24T22:32:33.266Z,0.90
2023-11-24T22:35:00.758Z,0.80
2023-11-24T22:37:28.252Z,0.70
2023-11-24T22:39:55.028Z,0.80
2023-11-24T22:42:23.215Z,0.90
2023-11-24T22:44:51.441Z,0.90
2023-11-24T22:47:18.838Z,0.70
2023-11-24T22:49:45.896Z,0.80
2023-11-24T22:52:12.786Z,0.90
2023-11-24T22:54:40.343Z,1.00
2023-11-24T22:57:07.662Z,0.90
2023-11-24T22:59:34.619Z,0.70
2023-11-24T23:02:01.756Z,0.90
2023-11-24T23:04:28.724Z,0.90
2023-11-24T23:06:55.574Z,0.80
2023-11-24T23:09:22.960Z,0.70
2023-11-24T23:11:50.248Z,0.80
2023-11-24T23:14:17.278Z,0.80
2023-11-24T23:16:45.098Z,0.90
2023-11-24T23:19:13.138Z,0.80
2023-11-24T23:21:42.191Z,0.80
2023-11-24T23:24:12.078Z,0.70
2023-11-24T23:26:39.680Z,0.80
2023-11-24T23:29:07.999Z,0.80
2023-11-24T23:31:35.221Z,1.00
2023-11-24T23:34:02.371Z,1.00
2023-11-24T23:36:29.757Z,0.90
2023-11-24T23:38:57.028Z,0.70
2023-11-24T23:41:23.981Z,0.80
2023-11-24T23:43:50.949Z,1.00
2023-11-24T23:46:18.104Z,0.70
2023-11-24T23:48:45.066Z,0.70
2023-11-24T23:51:12.490Z,0.60
2023-11-24T23:53:40.994Z,0.70
2023-11-24T23:56:08.131Z,0.70
2023-11-24T23:58:38.352Z,0.40
